createdAt,value
2017-09-03T00:00:19.679Z,0
2017-09-03T00:01:41.521Z,0
2017-09-03T00:03:04.024Z,0
2017-09-03T00:04:26.021Z,0
2017-09-03T00:05:48.237Z,0
2017-09-03T00:07:10.095Z,0
2017-09-03T00:08:32.610Z,0
2017-09-03T00:09:54.442Z,0
2017-09-03T00:11:16.594Z,0
2017-09-03T00:12:38.423Z,0
2017-09-03T00:14:00.906Z,0
2017-09-03T00:15:22.753Z,0
2017-09-03T00:16:44.566Z,0
2017-09-03T00:18:05.751Z,0
2017-09-03T00:19:27.610Z,0
2017-09-03T00:20:50.083Z,0
2017-09-03T00:22:12.640Z,0
2017-09-03T00:23:34.475Z,0
2017-09-03T00:24:56.914Z,0
2017-09-03T00:26:18.741Z,0
2017-09-03T00:27:40.244Z,0
2017-09-03T00:29:02.053Z,0
2017-09-03T00:30:24.882Z,0
2017-09-03T00:31:47.142Z,0
2017-09-03T00:33:09.005Z,0
2017-09-03T00:34:30.164Z,0
2017-09-03T00:35:52.717Z,0
2017-09-03T00:37:14.884Z,0
2017-09-03T00:38:36.724Z,0
2017-09-03T00:39:58.559Z,0
2017-09-03T00:41:20.054Z,0
2017-09-03T00:42:41.883Z,0
2017-09-03T00:44:04.344Z,0
2017-09-03T00:45:25.854Z,0
2017-09-03T00:46:48.372Z,0
2017-09-03T00:48:10.536Z,0
2017-09-03T00:49:33.051Z,0
2017-09-03T00:50:55.531Z,0
2017-09-03T00:52:18.361Z,0
2017-09-03T00:53:40.318Z,0
2017-09-03T00:55:01.903Z,0
2017-09-03T00:56:23.104Z,0
2017-09-03T00:57:45.269Z,0
2017-09-03T00:59:07.437Z,0
2017-09-03T01:00:29.982Z,0
2017-09-03T01:01:51.821Z,0
2017-09-03T01:03:13.933Z,0
2017-09-03T01:04:36.244Z,0
2017-09-03T01:05:57.754Z,0
2017-09-03T01:07:19.907Z,0
2017-09-03T01:08:42.724Z,0
2017-09-03T01:10:05.305Z,0
2017-09-03T01:11:27.129Z,0
2017-09-03T01:12:48.969Z,0
2017-09-03T01:14:11.363Z,0
2017-09-03T01:15:33.886Z,0
2017-09-03T01:16:56.363Z,0
2017-09-03T01:18:17.882Z,0
2017-09-03T01:19:40.034Z,0
2017-09-03T01:21:02.315Z,0
2017-09-03T01:22:24.136Z,0
2017-09-03T01:23:46.620Z,0
2017-09-03T01:25:08.752Z,0
2017-09-03T01:26:30.578Z,0
2017-09-03T01:27:52.232Z,0
2017-09-03T01:29:13.743Z,0
2017-09-03T01:30:35.835Z,0
2017-09-03T01:31:57.353Z,0
2017-09-03T01:33:19.169Z,0
2017-09-03T01:34:41.622Z,0
2017-09-03T01:36:03.497Z,0
2017-09-03T01:37:25.664Z,0
2017-09-03T01:38:48.116Z,0
2017-09-03T01:40:09.989Z,0
2017-09-03T01:41:32.094Z,0
2017-09-03T01:42:53.603Z,0
2017-09-03T01:44:15.780Z,0
2017-09-03T01:45:37.715Z,0
2017-09-03T01:46:59.837Z,0
2017-09-03T01:48:21.338Z,0
2017-09-03T01:49:43.486Z,0
2017-09-03T01:51:05.664Z,0
2017-09-03T01:52:27.885Z,0
2017-09-03T01:53:50.446Z,0
2017-09-03T01:55:12.929Z,0
2017-09-03T01:56:35.084Z,0
2017-09-03T01:57:57.656Z,0
2017-09-03T01:59:19.793Z,0
2017-09-03T02:00:41.625Z,0
2017-09-03T02:02:03.921Z,0
2017-09-03T02:03:25.461Z,0
2017-09-03T02:04:47.613Z,0
2017-09-03T02:06:09.098Z,0
2017-09-03T02:07:30.912Z,0
2017-09-03T02:08:53.101Z,0
2017-09-03T02:10:14.593Z,0
2017-09-03T02:11:36.794Z,0
2017-09-03T02:12:58.976Z,0
2017-09-03T02:14:20.823Z,0
2017-09-03T02:15:42.653Z,0
2017-09-03T02:17:04.814Z,0
2017-09-03T02:18:26.639Z,0
2017-09-03T02:19:49.135Z,0
2017-09-03T02:21:11.413Z,0
2017-09-03T02:22:33.899Z,0
2017-09-03T02:23:56.095Z,0
2017-09-03T02:25:17.846Z,0
2017-09-03T02:26:39.657Z,0
2017-09-03T02:28:01.481Z,0
2017-09-03T02:29:22.971Z,0
2017-09-03T02:30:44.833Z,0
2017-09-03T02:32:06.673Z,0
2017-09-03T02:33:29.116Z,0
2017-09-03T02:34:51.269Z,0
2017-09-03T02:36:13.593Z,0
2017-09-03T02:37:34.756Z,0
2017-09-03T02:38:56.952Z,0
2017-09-03T02:40:19.093Z,0
2017-09-03T02:41:41.852Z,0
2017-09-03T02:43:03.363Z,0
2017-09-03T02:44:25.568Z,0
2017-09-03T02:45:47.381Z,0
2017-09-03T02:47:09.567Z,0
2017-09-03T02:48:31.062Z,0
2017-09-03T02:49:52.921Z,0
2017-09-03T02:51:15.152Z,0
2017-09-03T02:52:37.333Z,0
2017-09-03T02:53:59.145Z,0
2017-09-03T02:55:21.282Z,0
2017-09-03T02:56:42.851Z,0
2017-09-03T02:58:04.974Z,0
2017-09-03T02:59:26.871Z,0
2017-09-03T03:00:48.716Z,0
2017-09-03T03:02:10.573Z,0
2017-09-03T03:03:32.501Z,0
2017-09-03T03:04:55.131Z,0
2017-09-03T03:06:16.975Z,0
2017-09-03T03:07:39.110Z,0
2017-09-03T03:09:01.285Z,0
2017-09-03T03:10:22.836Z,0
2017-09-03T03:11:44.335Z,0
2017-09-03T03:13:06.502Z,0
2017-09-03T03:14:28.272Z,0
2017-09-03T03:15:50.083Z,0
2017-09-03T03:17:12.236Z,0
2017-09-03T03:18:34.707Z,0
2017-09-03T03:19:56.736Z,0
2017-09-03T03:21:18.872Z,0
2017-09-03T03:22:41.148Z,0
2017-09-03T03:24:03.289Z,0
2017-09-03T03:25:25.451Z,0
2017-09-03T03:26:47.282Z,0
2017-09-03T03:28:09.747Z,0
2017-09-03T03:29:32.202Z,0
2017-09-03T03:30:54.055Z,0
2017-09-03T03:32:15.556Z,0
2017-09-03T03:33:37.698Z,0
2017-09-03T03:34:59.881Z,0
2017-09-03T03:36:21.400Z,0
2017-09-03T03:37:42.877Z,0
2017-09-03T03:39:04.383Z,0
2017-09-03T03:40:26.213Z,0
2017-09-03T03:41:48.009Z,0
2017-09-03T03:43:09.836Z,0
2017-09-03T03:44:31.978Z,0
2017-09-03T03:45:53.802Z,0
2017-09-03T03:47:16.332Z,0
2017-09-03T03:48:38.164Z,0
2017-09-03T03:50:00.402Z,0
2017-09-03T03:51:22.034Z,0
2017-09-03T03:52:44.532Z,0
2017-09-03T03:54:07.013Z,0
2017-09-03T03:55:28.847Z,0
2017-09-03T03:56:51.312Z,0
2017-09-03T03:58:13.832Z,0
2017-09-03T03:59:35.652Z,4
2017-09-03T04:00:57.163Z,4
2017-09-03T04:02:18.976Z,0
2017-09-03T04:03:41.714Z,4
2017-09-03T04:05:03.976Z,4
2017-09-03T04:06:26.443Z,4
2017-09-03T04:07:48.680Z,4
2017-09-03T04:09:10.425Z,4
2017-09-03T04:10:31.982Z,8
2017-09-03T04:11:54.129Z,8
2017-09-03T04:13:15.745Z,12
2017-09-03T04:14:38.233Z,16
2017-09-03T04:16:00.062Z,20
2017-09-03T04:17:22.213Z,24
2017-09-03T04:18:44.046Z,32
2017-09-03T04:20:06.212Z,44
2017-09-03T04:21:27.706Z,52
2017-09-03T04:22:49.532Z,68
2017-09-03T04:24:10.722Z,84
2017-09-03T04:25:33.253Z,104
2017-09-03T04:26:55.423Z,124
2017-09-03T04:28:17.239Z,140
2017-09-03T04:29:39.369Z,164
2017-09-03T04:31:01.810Z,176
2017-09-03T04:32:24.266Z,192
2017-09-03T04:33:46.730Z,208
2017-09-03T04:35:09.233Z,232
2017-09-03T04:36:31.393Z,264
2017-09-03T04:37:52.932Z,304
2017-09-03T04:39:14.770Z,356
2017-09-03T04:40:35.946Z,420
2017-09-03T04:41:58.379Z,500
2017-09-03T04:43:20.523Z,576
2017-09-03T04:44:42.473Z,652
2017-09-03T04:46:04.307Z,720
2017-09-03T04:47:26.115Z,808
2017-09-03T04:48:47.439Z,884
2017-09-03T04:50:08.940Z,956
2017-09-03T04:51:31.078Z,1028
2017-09-03T04:52:52.884Z,1112
2017-09-03T04:54:14.698Z,1204
2017-09-03T04:55:36.843Z,1288
2017-09-03T04:56:58.974Z,1392
2017-09-03T04:58:21.166Z,1488
2017-09-03T04:59:43.314Z,1588
2017-09-03T05:01:04.800Z,1676
2017-09-03T05:02:26.634Z,1780
2017-09-03T05:03:48.858Z,1872
2017-09-03T05:05:10.664Z,1988
2017-09-03T05:06:32.480Z,2120
2017-09-03T05:07:54.953Z,2228
2017-09-03T05:09:17.076Z,2440
2017-09-03T05:10:38.920Z,2516
2017-09-03T05:12:01.083Z,2612
2017-09-03T05:13:22.931Z,2744
2017-09-03T05:14:45.220Z,2836
2017-09-03T05:16:07.684Z,2816
2017-09-03T05:17:28.872Z,2816
2017-09-03T05:18:51.012Z,2944
2017-09-03T05:20:12.874Z,3072
2017-09-03T05:21:35.133Z,3460
2017-09-03T05:22:56.650Z,3684
2017-09-03T05:24:18.806Z,3856
2017-09-03T05:25:41.533Z,3956
2017-09-03T05:27:03.732Z,4056
2017-09-03T05:28:25.658Z,4188
2017-09-03T05:29:47.160Z,4304
2017-09-03T05:31:09.656Z,4420
2017-09-03T05:32:30.848Z,4580
2017-09-03T05:33:53.006Z,4760
2017-09-03T05:35:15.504Z,4912
2017-09-03T05:36:38.001Z,5216
2017-09-03T05:38:00.158Z,5480
2017-09-03T05:39:22.654Z,5768
2017-09-03T05:40:44.581Z,6276
2017-09-03T05:42:07.074Z,7076
2017-09-03T05:43:28.564Z,11544
2017-09-03T05:44:50.069Z,16960
2017-09-03T05:46:11.583Z,16896
2017-09-03T05:47:33.648Z,16192
2017-09-03T05:48:55.793Z,16736
2017-09-03T05:50:17.310Z,16512
2017-09-03T05:51:38.492Z,16864
2017-09-03T05:53:00.694Z,17824
2017-09-03T05:54:23.194Z,18304
2017-09-03T05:55:44.716Z,10760
2017-09-03T05:57:06.578Z,6900
2017-09-03T05:58:29.070Z,13792
2017-09-03T05:59:51.354Z,19520
2017-09-03T06:01:13.623Z,19936
2017-09-03T06:02:36.094Z,20640
2017-09-03T06:03:58.532Z,21216
2017-09-03T06:05:20.778Z,21184
2017-09-03T06:06:42.700Z,21280
2017-09-03T06:08:04.642Z,21920
2017-09-03T06:09:26.733Z,22784
2017-09-03T06:10:49.091Z,23488
2017-09-03T06:12:11.565Z,23776
2017-09-03T06:13:33.727Z,25056
2017-09-03T06:14:56.230Z,25856
2017-09-03T06:16:18.086Z,25824
2017-09-03T06:17:40.663Z,25440
2017-09-03T06:19:02.825Z,26880
2017-09-03T06:20:24.953Z,27840
2017-09-03T06:21:47.113Z,28000
2017-09-03T06:23:09.383Z,29376
2017-09-03T06:24:30.892Z,30048
2017-09-03T06:25:52.703Z,30304
2017-09-03T06:27:14.134Z,31808
2017-09-03T06:28:36.297Z,32544
2017-09-03T06:29:58.464Z,32416
2017-09-03T06:31:20.987Z,33088
2017-09-03T06:32:43.505Z,33760
2017-09-03T06:34:05.653Z,33344
2017-09-03T06:35:27.503Z,27808
2017-09-03T06:36:50.022Z,32064
2017-09-03T06:38:12.543Z,33728
2017-09-03T06:39:34.075Z,35296
2017-09-03T06:40:55.589Z,36160
2017-09-03T06:42:18.123Z,36064
2017-09-03T06:43:39.343Z,35744
2017-09-03T06:45:01.545Z,36032
2017-09-03T06:46:23.393Z,36544
2017-09-03T06:47:46.243Z,37504
2017-09-03T06:49:08.202Z,36320
2017-09-03T06:50:29.409Z,27520
2017-09-03T06:51:51.581Z,20416
2017-09-03T06:53:14.464Z,17856
2017-09-03T06:54:36.623Z,17440
2017-09-03T06:55:58.484Z,17280
2017-09-03T06:57:20.663Z,17088
2017-09-03T06:58:42.815Z,16768
2017-09-03T07:00:05.004Z,16512
2017-09-03T07:01:27.169Z,16192
2017-09-03T07:02:49.345Z,16000
2017-09-03T07:04:11.524Z,15708
2017-09-03T07:05:34.173Z,15548
2017-09-03T07:06:55.707Z,15372
2017-09-03T07:08:17.883Z,15212
2017-09-03T07:09:40.415Z,15128
2017-09-03T07:11:02.764Z,14972
2017-09-03T07:12:24.377Z,14748
2017-09-03T07:13:46.233Z,14644
2017-09-03T07:15:08.060Z,14536
2017-09-03T07:16:30.213Z,14428
2017-09-03T07:17:51.783Z,14284
2017-09-03T07:19:14.329Z,14156
2017-09-03T07:20:37.184Z,14060
2017-09-03T07:21:58.533Z,13992
2017-09-03T07:23:20.053Z,13896
2017-09-03T07:24:42.222Z,13688
2017-09-03T07:26:04.160Z,13520
2017-09-03T07:27:25.530Z,13424
2017-09-03T07:28:47.039Z,13316
2017-09-03T07:30:09.334Z,13240
2017-09-03T07:31:31.223Z,13156
2017-09-03T07:32:52.743Z,12988
2017-09-03T07:34:14.605Z,12792
2017-09-03T07:35:36.763Z,12356
2017-09-03T07:36:59.424Z,11868
2017-09-03T07:38:21.931Z,11508
2017-09-03T07:39:44.133Z,11124
2017-09-03T07:41:05.701Z,10664
2017-09-03T07:42:28.188Z,10196
2017-09-03T07:43:50.345Z,9540
2017-09-03T07:45:12.208Z,8372
2017-09-03T07:46:34.712Z,7484
2017-09-03T07:47:56.567Z,7032
2017-09-03T07:49:18.427Z,6748
2017-09-03T07:50:40.967Z,6624
2017-09-03T07:52:02.274Z,6548
2017-09-03T07:53:24.746Z,6484
2017-09-03T07:54:47.349Z,6408
2017-09-03T07:56:09.718Z,6356
2017-09-03T07:57:30.923Z,6328
2017-09-03T07:58:53.483Z,6324
2017-09-03T08:00:15.665Z,6316
2017-09-03T08:01:38.166Z,6316
2017-09-03T08:03:00.333Z,6308
2017-09-03T08:04:23.114Z,6300
2017-09-03T08:05:45.391Z,6284
2017-09-03T08:07:07.636Z,6252
2017-09-03T08:08:30.104Z,6232
2017-09-03T08:09:51.913Z,6212
2017-09-03T08:11:14.093Z,6200
2017-09-03T08:12:36.276Z,6180
2017-09-03T08:13:58.447Z,6156
2017-09-03T08:15:21.203Z,6152
2017-09-03T08:16:43.395Z,6132
2017-09-03T08:18:05.566Z,6108
2017-09-03T08:19:28.065Z,6088
2017-09-03T08:20:50.576Z,6084
2017-09-03T08:22:12.836Z,6072
2017-09-03T08:23:35.323Z,6056
2017-09-03T08:24:57.266Z,6044
2017-09-03T08:26:19.853Z,6036
2017-09-03T08:27:41.800Z,6024
2017-09-03T08:29:04.288Z,6008
2017-09-03T08:30:26.705Z,5992
2017-09-03T08:31:49.466Z,5988
2017-09-03T08:33:11.423Z,5976
2017-09-03T08:34:33.952Z,5968
2017-09-03T08:35:56.339Z,5948
2017-09-03T08:37:18.861Z,5932
2017-09-03T08:38:41.503Z,5916
2017-09-03T08:40:03.376Z,5900
2017-09-03T08:41:25.843Z,5880
2017-09-03T08:42:47.978Z,5868
2017-09-03T08:44:09.851Z,5848
2017-09-03T08:45:32.363Z,5832
2017-09-03T08:46:54.524Z,5820
2017-09-03T08:48:16.999Z,5816
2017-09-03T08:49:39.170Z,5812
2017-09-03T08:51:01.320Z,5804
2017-09-03T08:52:23.304Z,5800
2017-09-03T08:53:45.767Z,5800
2017-09-03T08:55:06.965Z,5812
2017-09-03T08:56:28.803Z,5828
2017-09-03T08:57:51.320Z,5848
2017-09-03T08:59:14.031Z,5972
2017-09-03T09:00:35.895Z,6032
2017-09-03T09:01:58.403Z,6056
2017-09-03T09:03:20.673Z,6036
2017-09-03T09:04:43.465Z,6056
2017-09-03T09:06:05.414Z,6072
2017-09-03T09:07:26.912Z,6016
2017-09-03T09:08:49.101Z,5912
2017-09-03T09:10:11.542Z,5628
2017-09-03T09:11:33.739Z,6044
2017-09-03T09:12:55.918Z,6076
2017-09-03T09:14:18.093Z,6148
2017-09-03T09:15:40.973Z,6272
2017-09-03T09:17:03.451Z,6280
2017-09-03T09:18:25.293Z,6476
2017-09-03T09:19:47.485Z,6668
2017-09-03T09:21:10.078Z,6932
2017-09-03T09:22:32.247Z,7044
2017-09-03T09:23:54.434Z,7104
2017-09-03T09:25:15.938Z,7180
2017-09-03T09:26:38.356Z,7248
2017-09-03T09:28:00.518Z,7340
2017-09-03T09:29:22.685Z,7480
2017-09-03T09:30:44.539Z,7656
2017-09-03T09:32:07.382Z,7680
2017-09-03T09:33:29.541Z,8000
2017-09-03T09:34:51.377Z,8100
2017-09-03T09:36:13.853Z,8868
2017-09-03T09:37:36.047Z,9696
2017-09-03T09:38:57.566Z,10256
2017-09-03T09:40:19.443Z,10392
2017-09-03T09:41:41.657Z,10972
2017-09-03T09:43:03.903Z,11252
2017-09-03T09:44:26.392Z,11628
2017-09-03T09:45:48.276Z,12076
2017-09-03T09:47:10.432Z,11732
2017-09-03T09:48:32.540Z,10916
2017-09-03T09:49:54.744Z,11196
2017-09-03T09:51:16.262Z,11256
2017-09-03T09:52:38.776Z,11012
2017-09-03T09:54:01.324Z,10052
2017-09-03T09:55:23.832Z,10104
2017-09-03T09:56:46.011Z,9576
2017-09-03T09:58:07.831Z,9380
2017-09-03T09:59:30.360Z,8984
2017-09-03T10:00:52.574Z,9380
2017-09-03T10:02:14.768Z,9364
2017-09-03T10:03:36.943Z,9416
2017-09-03T10:04:59.415Z,9784
2017-09-03T10:06:21.440Z,9368
2017-09-03T10:07:43.307Z,8740
2017-09-03T10:09:05.791Z,8788
2017-09-03T10:10:27.996Z,9324
2017-09-03T10:11:50.554Z,9320
2017-09-03T10:13:13.220Z,9376
2017-09-03T10:14:35.395Z,8864
2017-09-03T10:15:57.866Z,8784
2017-09-03T10:17:19.752Z,8864
2017-09-03T10:18:42.278Z,9376
2017-09-03T10:20:04.124Z,9668
2017-09-03T10:21:26.093Z,9724
2017-09-03T10:22:47.301Z,9820
2017-09-03T10:24:09.596Z,10660
2017-09-03T10:25:31.821Z,10956
2017-09-03T10:26:54.237Z,11408
2017-09-03T10:28:16.116Z,11440
2017-09-03T10:29:38.293Z,9820
2017-09-03T10:31:00.245Z,8296
2017-09-03T10:32:23.042Z,8080
2017-09-03T10:33:44.567Z,8604
2017-09-03T10:35:06.825Z,9012
2017-09-03T10:36:29.316Z,9176
2017-09-03T10:37:52.031Z,8480
2017-09-03T10:39:14.226Z,7932
2017-09-03T10:40:36.733Z,8140
2017-09-03T10:41:58.454Z,8812
2017-09-03T10:43:20.584Z,9220
2017-09-03T10:44:42.872Z,8948
2017-09-03T10:46:04.763Z,9512
2017-09-03T10:47:26.923Z,10384
2017-09-03T10:48:49.726Z,10928
2017-09-03T10:50:11.592Z,11088
2017-09-03T10:51:33.794Z,10760
2017-09-03T10:52:55.984Z,10936
2017-09-03T10:54:17.864Z,11416
2017-09-03T10:55:40.134Z,11368
2017-09-03T10:57:02.631Z,11296
2017-09-03T10:58:24.803Z,11684
2017-09-03T10:59:46.624Z,11776
2017-09-03T11:01:08.843Z,11520
2017-09-03T11:02:31.458Z,11196
2017-09-03T11:03:53.614Z,10076
2017-09-03T11:05:16.532Z,10024
2017-09-03T11:06:38.988Z,10376
2017-09-03T11:08:01.315Z,10736
2017-09-03T11:09:23.485Z,10692
2017-09-03T11:10:46.135Z,10576
2017-09-03T11:12:09.528Z,10816
2017-09-03T11:13:32.857Z,10996
2017-09-03T11:14:55.416Z,10540
2017-09-03T11:16:17.835Z,9584
2017-09-03T11:17:40.398Z,9728
2017-09-03T11:19:02.915Z,9500
2017-09-03T11:20:25.415Z,8656
2017-09-03T11:21:47.896Z,8092
2017-09-03T11:23:10.394Z,7884
2017-09-03T11:24:32.373Z,7764
2017-09-03T11:25:54.552Z,7656
2017-09-03T11:27:16.745Z,7352
2017-09-03T11:28:38.977Z,7088
2017-09-03T11:30:00.943Z,6704
2017-09-03T11:31:22.812Z,6948
2017-09-03T11:32:44.956Z,6772
2017-09-03T11:34:07.543Z,6716
2017-09-03T11:35:29.396Z,6700
2017-09-03T11:36:51.304Z,6548
2017-09-03T11:38:14.079Z,6436
2017-09-03T11:39:36.684Z,6404
2017-09-03T11:40:58.863Z,6316
2017-09-03T11:42:21.696Z,6452
2017-09-03T11:43:43.846Z,6472
2017-09-03T11:45:06.038Z,6456
2017-09-03T11:46:28.235Z,6464
2017-09-03T11:47:50.404Z,6428
2017-09-03T11:49:12.503Z,6548
2017-09-03T11:50:34.696Z,6544
2017-09-03T11:51:56.658Z,6100
2017-09-03T11:53:18.816Z,6548
2017-09-03T11:54:41.674Z,6676
2017-09-03T11:56:03.524Z,6744
2017-09-03T11:57:25.409Z,6788
2017-09-03T11:58:46.943Z,6852
2017-09-03T12:00:08.898Z,6992
2017-09-03T12:01:31.425Z,7116
2017-09-03T12:02:53.354Z,7004
2017-09-03T12:04:15.684Z,6924
2017-09-03T12:05:38.173Z,6716
2017-09-03T12:07:00.043Z,6976
2017-09-03T12:08:22.553Z,6924
2017-09-03T12:09:44.070Z,6796
2017-09-03T12:11:06.212Z,6708
2017-09-03T12:12:28.703Z,6620
2017-09-03T12:13:50.606Z,6496
2017-09-03T12:15:12.751Z,6424
2017-09-03T12:16:35.258Z,6576
2017-09-03T12:17:57.314Z,6668
2017-09-03T12:19:19.792Z,6756
2017-09-03T12:20:41.952Z,6980
2017-09-03T12:22:04.064Z,7500
2017-09-03T12:23:26.252Z,7524
2017-09-03T12:24:47.452Z,7772
2017-09-03T12:26:09.295Z,8008
2017-09-03T12:27:30.832Z,8000
2017-09-03T12:28:53.108Z,7980
2017-09-03T12:30:15.822Z,8112
2017-09-03T12:31:37.654Z,8204
2017-09-03T12:33:00.791Z,8152
2017-09-03T12:34:22.652Z,8212
2017-09-03T12:35:44.182Z,8292
2017-09-03T12:37:05.713Z,8520
2017-09-03T12:38:28.169Z,9260
2017-09-03T12:39:50.634Z,9804
2017-09-03T12:41:11.832Z,10112
2017-09-03T12:42:34.015Z,10108
2017-09-03T12:43:56.491Z,10576
2017-09-03T12:45:18.683Z,10924
2017-09-03T12:46:40.200Z,11320
2017-09-03T12:48:02.696Z,12108
2017-09-03T12:49:24.894Z,11096
2017-09-03T12:50:47.073Z,10296
2017-09-03T12:52:08.950Z,10276
2017-09-03T12:53:31.663Z,9808
2017-09-03T12:54:54.144Z,9212
2017-09-03T12:56:16.495Z,10016
2017-09-03T12:57:38.813Z,10212
2017-09-03T12:59:00.701Z,9912
2017-09-03T13:00:22.852Z,9232
2017-09-03T13:01:45.391Z,8764
2017-09-03T13:03:07.575Z,8368
2017-09-03T13:04:29.841Z,8360
2017-09-03T13:05:52.484Z,8284
2017-09-03T13:07:14.645Z,8048
2017-09-03T13:08:37.135Z,8140
2017-09-03T13:09:59.748Z,7444
2017-09-03T13:11:21.649Z,7108
2017-09-03T13:12:44.148Z,7024
2017-09-03T13:14:05.680Z,7044
2017-09-03T13:15:28.232Z,6868
2017-09-03T13:16:50.532Z,6656
2017-09-03T13:18:12.810Z,6596
2017-09-03T13:19:34.374Z,6872
2017-09-03T13:20:56.542Z,7388
2017-09-03T13:22:19.077Z,8412
2017-09-03T13:23:41.248Z,9988
2017-09-03T13:25:03.533Z,11836
2017-09-03T13:26:26.033Z,12608
2017-09-03T13:27:48.904Z,11804
2017-09-03T13:29:11.402Z,10856
2017-09-03T13:30:33.585Z,9888
2017-09-03T13:31:55.742Z,9532
2017-09-03T13:33:18.224Z,9332
2017-09-03T13:34:39.753Z,8736
2017-09-03T13:36:02.325Z,8080
2017-09-03T13:37:24.505Z,7704
2017-09-03T13:38:47.001Z,7512
2017-09-03T13:40:09.526Z,7336
2017-09-03T13:41:32.045Z,7188
2017-09-03T13:42:54.266Z,7076
2017-09-03T13:44:16.746Z,6996
2017-09-03T13:45:38.607Z,6952
2017-09-03T13:47:00.829Z,6920
2017-09-03T13:48:23.014Z,6976
2017-09-03T13:49:45.864Z,7172
2017-09-03T13:51:08.383Z,7332
2017-09-03T13:52:30.371Z,7392
2017-09-03T13:53:52.552Z,7640
2017-09-03T13:55:14.635Z,7832
2017-09-03T13:56:36.798Z,8256
2017-09-03T13:57:58.972Z,8380
2017-09-03T13:59:21.495Z,8548
2017-09-03T14:00:44.273Z,7884
2017-09-03T14:02:06.169Z,7988
2017-09-03T14:03:28.666Z,7864
2017-09-03T14:04:51.152Z,7964
2017-09-03T14:06:13.413Z,7592
2017-09-03T14:07:35.912Z,7632
2017-09-03T14:08:57.784Z,7344
2017-09-03T14:10:19.919Z,7080
2017-09-03T14:11:42.074Z,6888
2017-09-03T14:13:04.254Z,6840
2017-09-03T14:14:26.925Z,7548
2017-09-03T14:15:49.085Z,7972
2017-09-03T14:17:11.593Z,8288
2017-09-03T14:18:33.757Z,8580
2017-09-03T14:19:55.036Z,8852
2017-09-03T14:21:16.871Z,8436
2017-09-03T14:22:39.806Z,7572
2017-09-03T14:24:01.654Z,7392
2017-09-03T14:25:24.156Z,7092
2017-09-03T14:26:46.664Z,7100
2017-09-03T14:28:09.162Z,6332
2017-09-03T14:29:31.367Z,5952
2017-09-03T14:30:53.543Z,5736
2017-09-03T14:32:15.362Z,5524
2017-09-03T14:33:37.466Z,5408
2017-09-03T14:34:58.997Z,5352
2017-09-03T14:36:21.173Z,5352
2017-09-03T14:37:42.702Z,5496
2017-09-03T14:39:05.513Z,5752
2017-09-03T14:40:26.712Z,6308
2017-09-03T14:41:49.273Z,6944
2017-09-03T14:43:11.826Z,7100
2017-09-03T14:44:33.944Z,7160
2017-09-03T14:45:56.509Z,7264
2017-09-03T14:47:19.034Z,7432
2017-09-03T14:48:41.262Z,7632
2017-09-03T14:50:03.164Z,7832
2017-09-03T14:51:25.345Z,7860
2017-09-03T14:52:47.866Z,7448
2017-09-03T14:54:09.875Z,6928
2017-09-03T14:55:31.768Z,6780
2017-09-03T14:56:53.552Z,6420
2017-09-03T14:58:15.392Z,6448
2017-09-03T14:59:37.286Z,6708
2017-09-03T15:00:59.800Z,7156
2017-09-03T15:02:21.316Z,7276
2017-09-03T15:03:43.183Z,7408
2017-09-03T15:05:05.424Z,7828
2017-09-03T15:06:27.623Z,7460
2017-09-03T15:07:49.817Z,7356
2017-09-03T15:09:11.693Z,7168
2017-09-03T15:10:33.881Z,6704
2017-09-03T15:11:56.303Z,6324
2017-09-03T15:13:18.154Z,6120
2017-09-03T15:14:40.642Z,5964
2017-09-03T15:16:03.373Z,5736
2017-09-03T15:17:25.863Z,5628
2017-09-03T15:18:48.374Z,5560
2017-09-03T15:20:10.224Z,5600
2017-09-03T15:21:32.444Z,5824
2017-09-03T15:22:54.916Z,5972
2017-09-03T15:24:17.112Z,5932
2017-09-03T15:25:39.066Z,5736
2017-09-03T15:27:01.265Z,5508
2017-09-03T15:28:23.363Z,5428
2017-09-03T15:29:45.242Z,5388
2017-09-03T15:31:07.780Z,5216
2017-09-03T15:32:29.335Z,5068
2017-09-03T15:33:51.837Z,4940
2017-09-03T15:35:13.764Z,4768
2017-09-03T15:36:35.937Z,4660
2017-09-03T15:37:57.470Z,4580
2017-09-03T15:39:20.234Z,4692
2017-09-03T15:40:42.433Z,4708
2017-09-03T15:42:04.613Z,5048
2017-09-03T15:43:26.806Z,5140
2017-09-03T15:44:49.564Z,5592
2017-09-03T15:46:11.411Z,5556
2017-09-03T15:47:33.310Z,5408
2017-09-03T15:48:55.814Z,5260
2017-09-03T15:50:18.328Z,5120
2017-09-03T15:51:40.550Z,5212
2017-09-03T15:53:02.842Z,5240
2017-09-03T15:54:25.032Z,5236
2017-09-03T15:55:47.953Z,5088
2017-09-03T15:57:10.134Z,4884
2017-09-03T15:58:31.996Z,4696
2017-09-03T15:59:54.622Z,4516
2017-09-03T16:01:17.143Z,4336
2017-09-03T16:02:39.647Z,4140
2017-09-03T16:04:02.144Z,4036
2017-09-03T16:05:24.333Z,3916
2017-09-03T16:06:46.156Z,3804
2017-09-03T16:08:08.134Z,3760
2017-09-03T16:09:30.335Z,3784
2017-09-03T16:10:52.884Z,3928
2017-09-03T16:12:15.353Z,4108
2017-09-03T16:13:37.561Z,4332
2017-09-03T16:14:59.768Z,4664
2017-09-03T16:16:21.976Z,5256
2017-09-03T16:17:44.455Z,5672
2017-09-03T16:19:06.982Z,5828
2017-09-03T16:20:29.517Z,5812
2017-09-03T16:21:51.825Z,5560
2017-09-03T16:23:14.303Z,5536
2017-09-03T16:24:36.935Z,5308
2017-09-03T16:25:59.687Z,5088
2017-09-03T16:27:21.845Z,5068
2017-09-03T16:28:43.682Z,4792
2017-09-03T16:30:05.548Z,4460
2017-09-03T16:31:27.823Z,4332
2017-09-03T16:32:49.990Z,4428
2017-09-03T16:34:11.779Z,4432
2017-09-03T16:35:33.303Z,4464
2017-09-03T16:36:55.296Z,4592
2017-09-03T16:38:16.193Z,4796
2017-09-03T16:39:38.064Z,4788
2017-09-03T16:41:00.269Z,4700
2017-09-03T16:42:22.462Z,4652
2017-09-03T16:43:44.341Z,4708
2017-09-03T16:45:06.871Z,4864
2017-09-03T16:46:28.713Z,5044
2017-09-03T16:47:50.883Z,5028
2017-09-03T16:49:13.073Z,4848
2017-09-03T16:50:35.235Z,4468
2017-09-03T16:51:57.483Z,4084
2017-09-03T16:53:19.426Z,3872
2017-09-03T16:54:41.314Z,3648
2017-09-03T16:56:04.376Z,3468
2017-09-03T16:57:26.879Z,3336
2017-09-03T16:58:48.843Z,3200
2017-09-03T17:00:11.333Z,3132
2017-09-03T17:01:33.833Z,3076
2017-09-03T17:02:56.032Z,3024
2017-09-03T17:04:17.621Z,2944
2017-09-03T17:05:39.853Z,2840
2017-09-03T17:07:01.993Z,2748
2017-09-03T17:08:24.493Z,2648
2017-09-03T17:09:46.732Z,2556
2017-09-03T17:11:08.314Z,2456
2017-09-03T17:12:31.204Z,2364
2017-09-03T17:13:53.691Z,2288
2017-09-03T17:15:15.882Z,2216
2017-09-03T17:16:38.408Z,2160
2017-09-03T17:18:01.294Z,2104
2017-09-03T17:19:23.459Z,2044
2017-09-03T17:20:45.372Z,1984
2017-09-03T17:22:07.573Z,1936
2017-09-03T17:23:30.343Z,1900
2017-09-03T17:24:52.532Z,1860
2017-09-03T17:26:14.732Z,1816
2017-09-03T17:27:36.636Z,1768
2017-09-03T17:28:59.163Z,1728
2017-09-03T17:30:21.444Z,1684
2017-09-03T17:31:43.745Z,1640
2017-09-03T17:33:05.275Z,1604
2017-09-03T17:34:27.812Z,1564
2017-09-03T17:35:51.026Z,1528
2017-09-03T17:37:13.241Z,1492
2017-09-03T17:38:35.824Z,1448
2017-09-03T17:39:58.633Z,1396
2017-09-03T17:41:21.134Z,1340
2017-09-03T17:42:43.367Z,1280
2017-09-03T17:44:05.898Z,1220
2017-09-03T17:45:28.152Z,1160
2017-09-03T17:46:50.699Z,1100
2017-09-03T17:48:12.545Z,1044
2017-09-03T17:49:34.250Z,980
2017-09-03T17:50:56.740Z,916
2017-09-03T17:52:19.034Z,848
2017-09-03T17:53:40.594Z,780
2017-09-03T17:55:03.113Z,720
2017-09-03T17:56:26.014Z,664
2017-09-03T17:57:47.883Z,608
2017-09-03T17:59:10.215Z,552
2017-09-03T18:00:32.132Z,500
2017-09-03T18:01:53.663Z,452
2017-09-03T18:03:16.177Z,404
2017-09-03T18:04:38.796Z,356
2017-09-03T18:06:01.447Z,316
2017-09-03T18:07:24.554Z,280
2017-09-03T18:08:46.557Z,248
2017-09-03T18:10:08.176Z,224
2017-09-03T18:11:30.105Z,196
2017-09-03T18:12:52.760Z,172
2017-09-03T18:14:14.105Z,148
2017-09-03T18:15:35.726Z,124
2017-09-03T18:16:57.733Z,108
2017-09-03T18:18:19.955Z,92
2017-09-03T18:19:41.932Z,76
2017-09-03T18:21:04.311Z,64
2017-09-03T18:22:26.627Z,48
2017-09-03T18:23:48.426Z,36
2017-09-03T18:25:10.886Z,32
2017-09-03T18:26:33.141Z,24
2017-09-03T18:27:55.491Z,20
2017-09-03T18:29:18.345Z,16
2017-09-03T18:30:40.235Z,12
2017-09-03T18:32:02.492Z,8
2017-09-03T18:33:25.150Z,8
2017-09-03T18:34:48.245Z,8
2017-09-03T18:36:10.186Z,8